sensor_id;sensor_type;location;lat;lon;timestamp;P1;durP1;ratioP1;P2;durP2;ratioP2
16624;SDS011;8426;48.496;9.098;2022-12-10T00:00:45;50.13;;;15.43;;
16624;SDS011;8426;48.496;9.098;2022-12-10T00:05:49;45.87;;;15.87;;
16624;SDS011;8426;48.496;9.098;2022-12-10T00:10:55;44.07;;;17.50;;
16624;SDS011;8426;48.496;9.098;2022-12-10T00:16:00;41.90;;;16.37;;
16624;SDS011;8426;48.496;9.098;2022-12-10T00:21:07;55.30;;;17.07;;
16624;SDS011;8426;48.496;9.098;2022-12-10T00:26:15;50.50;;;16.63;;
16624;SDS011;8426;48.496;9.098;2022-12-10T00:31:23;59.13;;;19.20;;
16624;SDS011;8426;48.496;9.098;2022-12-10T00:36:30;46.37;;;16.43;;
16624;SDS011;8426;48.496;9.098;2022-12-10T00:41:36;53.00;;;17.57;;
16624;SDS011;8426;48.496;9.098;2022-12-10T00:46:43;46.33;;;16.53;;
16624;SDS011;8426;48.496;9.098;2022-12-10T00:51:46;67.80;;;19.70;;
16624;SDS011;8426;48.496;9.098;2022-12-10T00:56:52;50.47;;;18.77;;
16624;SDS011;8426;48.496;9.098;2022-12-10T01:01:58;62.73;;;18.33;;
16624;SDS011;8426;48.496;9.098;2022-12-10T01:07:01;48.00;;;16.90;;
16624;SDS011;8426;48.496;9.098;2022-12-10T01:12:13;48.97;;;16.50;;
16624;SDS011;8426;48.496;9.098;2022-12-10T01:17:16;50.37;;;17.73;;
16624;SDS011;8426;48.496;9.098;2022-12-10T01:22:19;47.80;;;16.83;;
16624;SDS011;8426;48.496;9.098;2022-12-10T01:27:26;63.23;;;19.07;;
16624;SDS011;8426;48.496;9.098;2022-12-10T01:32:33;51.00;;;18.60;;
16624;SDS011;8426;48.496;9.098;2022-12-10T01:37:36;54.57;;;19.03;;
16624;SDS011;8426;48.496;9.098;2022-12-10T01:42:42;57.97;;;20.07;;
16624;SDS011;8426;48.496;9.098;2022-12-10T01:47:50;56.60;;;19.07;;
16624;SDS011;8426;48.496;9.098;2022-12-10T01:52:57;63.00;;;20.03;;
16624;SDS011;8426;48.496;9.098;2022-12-10T01:58:03;63.43;;;20.47;;
16624;SDS011;8426;48.496;9.098;2022-12-10T02:03:07;73.23;;;20.30;;
16624;SDS011;8426;48.496;9.098;2022-12-10T02:08:18;52.30;;;17.50;;
16624;SDS011;8426;48.496;9.098;2022-12-10T02:13:30;66.97;;;21.13;;
16624;SDS011;8426;48.496;9.098;2022-12-10T02:18:42;70.80;;;21.27;;
16624;SDS011;8426;48.496;9.098;2022-12-10T02:23:52;60.67;;;19.10;;
16624;SDS011;8426;48.496;9.098;2022-12-10T02:29:06;63.90;;;21.00;;
16624;SDS011;8426;48.496;9.098;2022-12-10T02:34:19;60.40;;;20.47;;
16624;SDS011;8426;48.496;9.098;2022-12-10T02:39:26;77.90;;;22.20;;
16624;SDS011;8426;48.496;9.098;2022-12-10T02:44:35;71.40;;;22.00;;
16624;SDS011;8426;48.496;9.098;2022-12-10T02:49:40;96.60;;;24.40;;
16624;SDS011;8426;48.496;9.098;2022-12-10T02:54:46;77.73;;;24.53;;
16624;SDS011;8426;48.496;9.098;2022-12-10T03:00:00;77.47;;;23.13;;
16624;SDS011;8426;48.496;9.098;2022-12-10T03:05:11;66.77;;;23.60;;
16624;SDS011;8426;48.496;9.098;2022-12-10T03:10:21;77.37;;;25.23;;
16624;SDS011;8426;48.496;9.098;2022-12-10T03:15:29;68.30;;;21.63;;
16624;SDS011;8426;48.496;9.098;2022-12-10T03:20:37;54.13;;;20.80;;
16624;SDS011;8426;48.496;9.098;2022-12-10T03:25:42;59.20;;;21.80;;
16624;SDS011;8426;48.496;9.098;2022-12-10T03:30:50;54.50;;;21.70;;
16624;SDS011;8426;48.496;9.098;2022-12-10T03:35:55;52.23;;;18.97;;
16624;SDS011;8426;48.496;9.098;2022-12-10T03:40:59;48.57;;;19.97;;
16624;SDS011;8426;48.496;9.098;2022-12-10T03:46:04;50.40;;;20.63;;
16624;SDS011;8426;48.496;9.098;2022-12-10T03:51:08;53.70;;;19.33;;
16624;SDS011;8426;48.496;9.098;2022-12-10T03:56:12;51.77;;;20.07;;
16624;SDS011;8426;48.496;9.098;2022-12-10T04:01:16;46.33;;;19.00;;
16624;SDS011;8426;48.496;9.098;2022-12-10T04:06:20;48.87;;;19.40;;
16624;SDS011;8426;48.496;9.098;2022-12-10T04:11:25;42.33;;;19.03;;
16624;SDS011;8426;48.496;9.098;2022-12-10T04:16:30;49.90;;;18.60;;
16624;SDS011;8426;48.496;9.098;2022-12-10T04:21:38;48.37;;;19.43;;
16624;SDS011;8426;48.496;9.098;2022-12-10T04:27:02;47.53;;;18.10;;
16624;SDS011;8426;48.496;9.098;2022-12-10T04:32:09;47.70;;;19.30;;
16624;SDS011;8426;48.496;9.098;2022-12-10T04:37:12;49.07;;;19.20;;
16624;SDS011;8426;48.496;9.098;2022-12-10T04:42:16;40.33;;;17.60;;
16624;SDS011;8426;48.496;9.098;2022-12-10T04:47:21;42.00;;;18.80;;
16624;SDS011;8426;48.496;9.098;2022-12-10T04:52:25;48.80;;;19.70;;
16624;SDS011;8426;48.496;9.098;2022-12-10T04:57:28;41.77;;;18.33;;
16624;SDS011;8426;48.496;9.098;2022-12-10T05:02:32;49.03;;;19.50;;
16624;SDS011;8426;48.496;9.098;2022-12-10T05:07:36;41.90;;;19.53;;
16624;SDS011;8426;48.496;9.098;2022-12-10T05:12:39;43.80;;;18.10;;
16624;SDS011;8426;48.496;9.098;2022-12-10T05:17:44;44.00;;;18.30;;
16624;SDS011;8426;48.496;9.098;2022-12-10T05:22:47;48.23;;;18.60;;
16624;SDS011;8426;48.496;9.098;2022-12-10T05:28:08;45.23;;;18.20;;
16624;SDS011;8426;48.496;9.098;2022-12-10T05:33:13;43.57;;;17.93;;
16624;SDS011;8426;48.496;9.098;2022-12-10T05:38:17;42.93;;;17.67;;
16624;SDS011;8426;48.496;9.098;2022-12-10T05:43:20;49.73;;;18.70;;
16624;SDS011;8426;48.496;9.098;2022-12-10T05:48:25;45.10;;;19.47;;
16624;SDS011;8426;48.496;9.098;2022-12-10T05:53:29;44.80;;;18.83;;
16624;SDS011;8426;48.496;9.098;2022-12-10T05:58:32;45.93;;;18.07;;
16624;SDS011;8426;48.496;9.098;2022-12-10T06:03:40;41.40;;;19.20;;
16624;SDS011;8426;48.496;9.098;2022-12-10T06:08:43;38.37;;;16.63;;
16624;SDS011;8426;48.496;9.098;2022-12-10T06:13:47;40.57;;;17.30;;
16624;SDS011;8426;48.496;9.098;2022-12-10T06:18:58;37.20;;;16.23;;
16624;SDS011;8426;48.496;9.098;2022-12-10T06:24:01;39.77;;;17.80;;
16624;SDS011;8426;48.496;9.098;2022-12-10T06:29:04;43.07;;;18.20;;
16624;SDS011;8426;48.496;9.098;2022-12-10T06:34:09;39.73;;;17.97;;
16624;SDS011;8426;48.496;9.098;2022-12-10T06:39:12;40.77;;;16.50;;
16624;SDS011;8426;48.496;9.098;2022-12-10T06:44:16;37.90;;;15.30;;
16624;SDS011;8426;48.496;9.098;2022-12-10T06:49:20;47.60;;;19.87;;
16624;SDS011;8426;48.496;9.098;2022-12-10T06:54:24;46.83;;;19.20;;
16624;SDS011;8426;48.496;9.098;2022-12-10T06:59:27;41.60;;;18.40;;
16624;SDS011;8426;48.496;9.098;2022-12-10T07:04:32;42.30;;;17.80;;
16624;SDS011;8426;48.496;9.098;2022-12-10T07:09:35;39.90;;;17.40;;
16624;SDS011;8426;48.496;9.098;2022-12-10T07:14:39;34.87;;;16.47;;
16624;SDS011;8426;48.496;9.098;2022-12-10T07:19:44;48.37;;;20.27;;
16624;SDS011;8426;48.496;9.098;2022-12-10T07:24:47;35.67;;;15.60;;
16624;SDS011;8426;48.496;9.098;2022-12-10T07:29:51;44.77;;;19.77;;
16624;SDS011;8426;48.496;9.098;2022-12-10T07:34:56;47.20;;;20.53;;
16624;SDS011;8426;48.496;9.098;2022-12-10T07:40:02;38.23;;;18.00;;
16624;SDS011;8426;48.496;9.098;2022-12-10T07:45:06;36.57;;;18.27;;
16624;SDS011;8426;48.496;9.098;2022-12-10T07:50:12;41.23;;;17.03;;
16624;SDS011;8426;48.496;9.098;2022-12-10T07:55:15;43.57;;;17.30;;
16624;SDS011;8426;48.496;9.098;2022-12-10T08:00:19;38.33;;;17.47;;
16624;SDS011;8426;48.496;9.098;2022-12-10T08:05:24;34.20;;;15.40;;
16624;SDS011;8426;48.496;9.098;2022-12-10T08:10:27;39.33;;;16.37;;
16624;SDS011;8426;48.496;9.098;2022-12-10T08:15:31;29.77;;;14.80;;
16624;SDS011;8426;48.496;9.098;2022-12-10T08:20:36;37.20;;;16.23;;
16624;SDS011;8426;48.496;9.098;2022-12-10T08:25:39;36.13;;;17.43;;
16624;SDS011;8426;48.496;9.098;2022-12-10T08:30:45;36.10;;;17.60;;
16624;SDS011;8426;48.496;9.098;2022-12-10T08:35:50;36.40;;;19.85;;
16624;SDS011;8426;48.496;9.098;2022-12-10T08:40:53;32.80;;;14.80;;
16624;SDS011;8426;48.496;9.098;2022-12-10T08:45:57;35.50;;;15.23;;
16624;SDS011;8426;48.496;9.098;2022-12-10T08:51:02;31.97;;;14.43;;
16624;SDS011;8426;48.496;9.098;2022-12-10T08:56:07;34.90;;;16.80;;
16624;SDS011;8426;48.496;9.098;2022-12-10T09:01:11;27.30;;;13.60;;
16624;SDS011;8426;48.496;9.098;2022-12-10T09:06:18;29.43;;;14.50;;
16624;SDS011;8426;48.496;9.098;2022-12-10T09:11:24;27.50;;;13.43;;
16624;SDS011;8426;48.496;9.098;2022-12-10T09:16:30;35.00;;;15.40;;
16624;SDS011;8426;48.496;9.098;2022-12-10T09:21:36;28.33;;;13.20;;
16624;SDS011;8426;48.496;9.098;2022-12-10T09:26:39;26.87;;;13.73;;
16624;SDS011;8426;48.496;9.098;2022-12-10T09:31:43;29.57;;;14.53;;
16624;SDS011;8426;48.496;9.098;2022-12-10T09:36:48;25.10;;;11.67;;
16624;SDS011;8426;48.496;9.098;2022-12-10T09:41:55;30.17;;;13.50;;
16624;SDS011;8426;48.496;9.098;2022-12-10T09:47:12;26.13;;;13.03;;
16624;SDS011;8426;48.496;9.098;2022-12-10T09:52:19;29.57;;;14.17;;
16624;SDS011;8426;48.496;9.098;2022-12-10T09:57:24;26.67;;;13.17;;
16624;SDS011;8426;48.496;9.098;2022-12-10T10:02:31;34.73;;;15.80;;
16624;SDS011;8426;48.496;9.098;2022-12-10T10:07:38;27.50;;;15.00;;
16624;SDS011;8426;48.496;9.098;2022-12-10T10:12:46;28.40;;;14.03;;
16624;SDS011;8426;48.496;9.098;2022-12-10T10:17:50;28.40;;;13.83;;
16624;SDS011;8426;48.496;9.098;2022-12-10T10:22:58;26.03;;;13.47;;
16624;SDS011;8426;48.496;9.098;2022-12-10T10:28:02;29.23;;;13.63;;
16624;SDS011;8426;48.496;9.098;2022-12-10T10:33:07;24.67;;;12.77;;
16624;SDS011;8426;48.496;9.098;2022-12-10T10:38:18;25.67;;;13.83;;
16624;SDS011;8426;48.496;9.098;2022-12-10T10:43:25;28.47;;;13.03;;
16624;SDS011;8426;48.496;9.098;2022-12-10T10:48:30;25.90;;;12.80;;
16624;SDS011;8426;48.496;9.098;2022-12-10T10:53:41;25.57;;;12.27;;
16624;SDS011;8426;48.496;9.098;2022-12-10T10:58:53;21.80;;;10.93;;
16624;SDS011;8426;48.496;9.098;2022-12-10T11:03:59;27.27;;;12.77;;
16624;SDS011;8426;48.496;9.098;2022-12-10T11:09:07;25.47;;;12.13;;
16624;SDS011;8426;48.496;9.098;2022-12-10T11:14:22;26.63;;;11.87;;
16624;SDS011;8426;48.496;9.098;2022-12-10T11:19:27;26.10;;;12.73;;
16624;SDS011;8426;48.496;9.098;2022-12-10T11:24:32;21.57;;;11.77;;
16624;SDS011;8426;48.496;9.098;2022-12-10T11:29:46;25.57;;;12.43;;
16624;SDS011;8426;48.496;9.098;2022-12-10T11:35:00;26.33;;;13.10;;
16624;SDS011;8426;48.496;9.098;2022-12-10T11:40:22;28.87;;;13.90;;
16624;SDS011;8426;48.496;9.098;2022-12-10T11:45:35;25.03;;;12.60;;
16624;SDS011;8426;48.496;9.098;2022-12-10T11:50:50;25.67;;;11.93;;
16624;SDS011;8426;48.496;9.098;2022-12-10T11:56:02;24.40;;;11.20;;
16624;SDS011;8426;48.496;9.098;2022-12-10T12:01:20;24.60;;;11.53;;
16624;SDS011;8426;48.496;9.098;2022-12-10T12:06:35;19.80;;;10.63;;
16624;SDS011;8426;48.496;9.098;2022-12-10T12:11:57;23.10;;;11.83;;
16624;SDS011;8426;48.496;9.098;2022-12-10T12:17:11;21.57;;;10.13;;
16624;SDS011;8426;48.496;9.098;2022-12-10T12:22:22;20.43;;;10.23;;
16624;SDS011;8426;48.496;9.098;2022-12-10T12:27:30;18.60;;;8.30;;
16624;SDS011;8426;48.496;9.098;2022-12-10T12:32:40;15.73;;;8.07;;
16624;SDS011;8426;48.496;9.098;2022-12-10T12:37:50;19.40;;;9.17;;
16624;SDS011;8426;48.496;9.098;2022-12-10T12:42:59;17.70;;;9.00;;
16624;SDS011;8426;48.496;9.098;2022-12-10T12:48:11;18.90;;;9.83;;
16624;SDS011;8426;48.496;9.098;2022-12-10T12:53:21;18.17;;;9.03;;
16624;SDS011;8426;48.496;9.098;2022-12-10T12:58:36;20.23;;;9.17;;
16624;SDS011;8426;48.496;9.098;2022-12-10T13:03:43;17.87;;;9.23;;
16624;SDS011;8426;48.496;9.098;2022-12-10T13:08:48;20.40;;;9.03;;
16624;SDS011;8426;48.496;9.098;2022-12-10T13:19:33;15.63;;;8.50;;
16624;SDS011;8426;48.496;9.098;2022-12-10T13:35:33;15.37;;;7.40;;
16624;SDS011;8426;48.496;9.098;2022-12-10T13:40:50;16.77;;;8.20;;
16624;SDS011;8426;48.496;9.098;2022-12-10T13:46:23;17.97;;;9.37;;
16624;SDS011;8426;48.496;9.098;2022-12-10T13:51:34;20.70;;;9.77;;
16624;SDS011;8426;48.496;9.098;2022-12-10T13:56:46;24.43;;;9.53;;
16624;SDS011;8426;48.496;9.098;2022-12-10T14:02:01;18.93;;;9.63;;
16624;SDS011;8426;48.496;9.098;2022-12-10T14:07:20;18.30;;;10.13;;
16624;SDS011;8426;48.496;9.098;2022-12-10T14:12:25;20.60;;;9.97;;
16624;SDS011;8426;48.496;9.098;2022-12-10T14:17:36;20.93;;;10.83;;
16624;SDS011;8426;48.496;9.098;2022-12-10T14:22:43;21.80;;;10.43;;
16624;SDS011;8426;48.496;9.098;2022-12-10T14:27:49;21.77;;;10.47;;
16624;SDS011;8426;48.496;9.098;2022-12-10T14:32:56;21.90;;;10.50;;
16624;SDS011;8426;48.496;9.098;2022-12-10T14:38:01;26.57;;;11.90;;
16624;SDS011;8426;48.496;9.098;2022-12-10T14:43:05;20.90;;;10.67;;
16624;SDS011;8426;48.496;9.098;2022-12-10T14:48:15;21.90;;;11.40;;
16624;SDS011;8426;48.496;9.098;2022-12-10T14:53:20;19.70;;;9.53;;
16624;SDS011;8426;48.496;9.098;2022-12-10T14:58:30;20.50;;;10.30;;
16624;SDS011;8426;48.496;9.098;2022-12-10T15:03:45;31.70;;;13.10;;
16624;SDS011;8426;48.496;9.098;2022-12-10T15:08:50;20.77;;;10.20;;
16624;SDS011;8426;48.496;9.098;2022-12-10T15:13:58;23.53;;;10.80;;
16624;SDS011;8426;48.496;9.098;2022-12-10T15:19:09;18.93;;;9.67;;
16624;SDS011;8426;48.496;9.098;2022-12-10T15:24:21;22.70;;;11.33;;
16624;SDS011;8426;48.496;9.098;2022-12-10T15:29:31;19.90;;;9.87;;
16624;SDS011;8426;48.496;9.098;2022-12-10T15:34:41;20.47;;;10.17;;
16624;SDS011;8426;48.496;9.098;2022-12-10T15:39:48;22.07;;;10.80;;
16624;SDS011;8426;48.496;9.098;2022-12-10T15:44:54;24.77;;;10.83;;
16624;SDS011;8426;48.496;9.098;2022-12-10T15:50:03;21.17;;;10.60;;
16624;SDS011;8426;48.496;9.098;2022-12-10T15:55:11;22.43;;;10.53;;
16624;SDS011;8426;48.496;9.098;2022-12-10T16:00:18;19.63;;;10.03;;
16624;SDS011;8426;48.496;9.098;2022-12-10T16:05:25;20.27;;;10.13;;
16624;SDS011;8426;48.496;9.098;2022-12-10T16:10:31;22.70;;;10.30;;
16624;SDS011;8426;48.496;9.098;2022-12-10T16:15:37;20.93;;;10.63;;
16624;SDS011;8426;48.496;9.098;2022-12-10T16:20:46;19.57;;;9.87;;
16624;SDS011;8426;48.496;9.098;2022-12-10T16:25:49;27.57;;;10.80;;
16624;SDS011;8426;48.496;9.098;2022-12-10T16:30:53;20.43;;;9.83;;
16624;SDS011;8426;48.496;9.098;2022-12-10T16:35:59;19.80;;;10.13;;
16624;SDS011;8426;48.496;9.098;2022-12-10T16:41:06;23.57;;;10.73;;
16624;SDS011;8426;48.496;9.098;2022-12-10T16:46:17;20.17;;;9.47;;
16624;SDS011;8426;48.496;9.098;2022-12-10T16:51:22;21.30;;;9.43;;
16624;SDS011;8426;48.496;9.098;2022-12-10T16:56:30;21.03;;;10.00;;
16624;SDS011;8426;48.496;9.098;2022-12-10T17:01:34;21.70;;;10.20;;
16624;SDS011;8426;48.496;9.098;2022-12-10T17:06:39;20.33;;;10.63;;
16624;SDS011;8426;48.496;9.098;2022-12-10T17:11:42;23.03;;;10.40;;
16624;SDS011;8426;48.496;9.098;2022-12-10T17:16:50;39.57;;;15.80;;
16624;SDS011;8426;48.496;9.098;2022-12-10T17:21:57;43.90;;;17.23;;
16624;SDS011;8426;48.496;9.098;2022-12-10T17:27:02;29.33;;;11.73;;
16624;SDS011;8426;48.496;9.098;2022-12-10T17:32:09;36.07;;;15.13;;
16624;SDS011;8426;48.496;9.098;2022-12-10T17:37:20;19.17;;;9.73;;
16624;SDS011;8426;48.496;9.098;2022-12-10T17:42:23;18.27;;;9.07;;
16624;SDS011;8426;48.496;9.098;2022-12-10T17:47:27;21.03;;;9.57;;
16624;SDS011;8426;48.496;9.098;2022-12-10T17:52:31;21.70;;;10.27;;
16624;SDS011;8426;48.496;9.098;2022-12-10T17:57:35;21.20;;;9.93;;
16624;SDS011;8426;48.496;9.098;2022-12-10T18:02:40;19.10;;;9.03;;
16624;SDS011;8426;48.496;9.098;2022-12-10T18:07:46;18.87;;;9.63;;
16624;SDS011;8426;48.496;9.098;2022-12-10T18:12:49;20.13;;;9.87;;
16624;SDS011;8426;48.496;9.098;2022-12-10T18:17:54;23.77;;;10.63;;
16624;SDS011;8426;48.496;9.098;2022-12-10T18:23:00;18.40;;;9.13;;
16624;SDS011;8426;48.496;9.098;2022-12-10T18:28:14;16.00;;;7.97;;
16624;SDS011;8426;48.496;9.098;2022-12-10T18:33:36;22.33;;;10.33;;
16624;SDS011;8426;48.496;9.098;2022-12-10T18:38:42;19.40;;;10.13;;
16624;SDS011;8426;48.496;9.098;2022-12-10T18:43:46;29.23;;;12.43;;
16624;SDS011;8426;48.496;9.098;2022-12-10T18:48:49;18.50;;;9.43;;
16624;SDS011;8426;48.496;9.098;2022-12-10T18:53:54;18.70;;;9.83;;
16624;SDS011;8426;48.496;9.098;2022-12-10T18:58:58;18.77;;;10.30;;
16624;SDS011;8426;48.496;9.098;2022-12-10T19:04:02;18.40;;;9.57;;
16624;SDS011;8426;48.496;9.098;2022-12-10T19:09:09;16.67;;;9.07;;
16624;SDS011;8426;48.496;9.098;2022-12-10T19:14:19;20.70;;;9.90;;
16624;SDS011;8426;48.496;9.098;2022-12-10T19:19:24;17.50;;;9.30;;
16624;SDS011;8426;48.496;9.098;2022-12-10T19:24:34;21.23;;;8.70;;
16624;SDS011;8426;48.496;9.098;2022-12-10T19:29:46;17.80;;;8.73;;
16624;SDS011;8426;48.496;9.098;2022-12-10T19:34:50;21.10;;;10.90;;
16624;SDS011;8426;48.496;9.098;2022-12-10T19:39:54;23.07;;;11.97;;
16624;SDS011;8426;48.496;9.098;2022-12-10T19:44:58;19.47;;;11.20;;
16624;SDS011;8426;48.496;9.098;2022-12-10T19:50:02;19.10;;;9.70;;
16624;SDS011;8426;48.496;9.098;2022-12-10T19:55:08;18.00;;;10.10;;
16624;SDS011;8426;48.496;9.098;2022-12-10T20:00:13;22.23;;;11.03;;
16624;SDS011;8426;48.496;9.098;2022-12-10T20:05:19;26.53;;;11.77;;
16624;SDS011;8426;48.496;9.098;2022-12-10T20:10:25;24.00;;;11.53;;
16624;SDS011;8426;48.496;9.098;2022-12-10T20:15:31;21.57;;;10.83;;
16624;SDS011;8426;48.496;9.098;2022-12-10T20:20:35;36.83;;;14.70;;
16624;SDS011;8426;48.496;9.098;2022-12-10T20:25:40;24.77;;;11.73;;
16624;SDS011;8426;48.496;9.098;2022-12-10T20:30:47;21.03;;;10.23;;
16624;SDS011;8426;48.496;9.098;2022-12-10T20:35:51;24.47;;;11.13;;
16624;SDS011;8426;48.496;9.098;2022-12-10T20:40:56;21.30;;;10.53;;
16624;SDS011;8426;48.496;9.098;2022-12-10T20:46:00;22.93;;;10.83;;
16624;SDS011;8426;48.496;9.098;2022-12-10T20:51:03;18.03;;;9.83;;
16624;SDS011;8426;48.496;9.098;2022-12-10T20:56:10;24.27;;;11.73;;
16624;SDS011;8426;48.496;9.098;2022-12-10T21:01:15;21.57;;;10.80;;
16624;SDS011;8426;48.496;9.098;2022-12-10T21:06:21;21.57;;;11.17;;
16624;SDS011;8426;48.496;9.098;2022-12-10T21:11:28;22.23;;;10.53;;
16624;SDS011;8426;48.496;9.098;2022-12-10T21:16:31;21.03;;;10.47;;
16624;SDS011;8426;48.496;9.098;2022-12-10T21:21:35;20.77;;;9.83;;
16624;SDS011;8426;48.496;9.098;2022-12-10T21:26:40;18.17;;;9.80;;
16624;SDS011;8426;48.496;9.098;2022-12-10T21:31:43;21.17;;;10.23;;
16624;SDS011;8426;48.496;9.098;2022-12-10T21:36:46;24.97;;;11.60;;
16624;SDS011;8426;48.496;9.098;2022-12-10T21:41:51;26.10;;;12.63;;
16624;SDS011;8426;48.496;9.098;2022-12-10T21:47:12;22.57;;;11.53;;
16624;SDS011;8426;48.496;9.098;2022-12-10T21:52:15;25.20;;;11.80;;
16624;SDS011;8426;48.496;9.098;2022-12-10T21:57:23;23.73;;;11.30;;
16624;SDS011;8426;48.496;9.098;2022-12-10T22:02:27;25.30;;;11.97;;
16624;SDS011;8426;48.496;9.098;2022-12-10T22:07:32;29.23;;;13.20;;
16624;SDS011;8426;48.496;9.098;2022-12-10T22:12:37;25.60;;;12.50;;
16624;SDS011;8426;48.496;9.098;2022-12-10T22:17:41;21.17;;;11.40;;
16624;SDS011;8426;48.496;9.098;2022-12-10T22:22:44;24.73;;;12.53;;
16624;SDS011;8426;48.496;9.098;2022-12-10T22:27:49;24.53;;;11.23;;
16624;SDS011;8426;48.496;9.098;2022-12-10T22:32:53;24.77;;;11.13;;
16624;SDS011;8426;48.496;9.098;2022-12-10T22:37:56;22.00;;;10.07;;
16624;SDS011;8426;48.496;9.098;2022-12-10T22:43:01;24.13;;;11.00;;
16624;SDS011;8426;48.496;9.098;2022-12-10T22:48:24;22.50;;;11.00;;
16624;SDS011;8426;48.496;9.098;2022-12-10T22:53:28;23.70;;;11.40;;
16624;SDS011;8426;48.496;9.098;2022-12-10T22:58:33;23.73;;;11.20;;
16624;SDS011;8426;48.496;9.098;2022-12-10T23:03:38;22.87;;;11.03;;
16624;SDS011;8426;48.496;9.098;2022-12-10T23:08:41;19.83;;;10.80;;
16624;SDS011;8426;48.496;9.098;2022-12-10T23:13:46;18.47;;;9.33;;
16624;SDS011;8426;48.496;9.098;2022-12-10T23:18:50;24.07;;;9.37;;
16624;SDS011;8426;48.496;9.098;2022-12-10T23:23:53;20.33;;;9.43;;
16624;SDS011;8426;48.496;9.098;2022-12-10T23:28:58;18.80;;;8.70;;
16624;SDS011;8426;48.496;9.098;2022-12-10T23:34:01;20.07;;;9.73;;
16624;SDS011;8426;48.496;9.098;2022-12-10T23:39:06;19.57;;;9.20;;
16624;SDS011;8426;48.496;9.098;2022-12-10T23:44:11;17.50;;;8.47;;
16624;SDS011;8426;48.496;9.098;2022-12-10T23:49:15;17.77;;;8.23;;
16624;SDS011;8426;48.496;9.098;2022-12-10T23:54:19;18.93;;;9.27;;
16624;SDS011;8426;48.496;9.098;2022-12-10T23:59:24;18.27;;;8.70;;
